sensor_id;sensor_type;location;lat;lon;timestamp;pressure;altitude;pressure_sealevel;temperature;humidity
19748;BME280;10032;51.386;12.516;2023-12-22T00:02:00;97740.78;;;5.95;100.00
19748;BME280;10032;51.386;12.516;2023-12-22T00:04:26;97750.47;;;5.91;100.00
19748;BME280;10032;51.386;12.516;2023-12-22T00:06:51;97750.19;;;5.92;100.00
19748;BME280;10032;51.386;12.516;2023-12-22T00:09:17;97762.84;;;5.92;100.00
19748;BME280;10032;51.386;12.516;2023-12-22T00:11:42;97771.44;;;5.94;100.00
19748;BME280;10032;51.386;12.516;2023-12-22T00:14:08;97773.84;;;5.95;100.00
19748;BME280;10032;51.386;12.516;2023-12-22T00:16:33;97773.81;;;6.00;100.00
19748;BME280;10032;51.386;12.516;2023-12-22T00:18:58;97773.25;;;6.03;100.00
19748;BME280;10032;51.386;12.516;2023-12-22T00:21:24;97776.16;;;6.07;100.00
19748;BME280;10032;51.386;12.516;2023-12-22T00:23:49;97770.25;;;6.10;100.00
19748;BME280;10032;51.386;12.516;2023-12-22T00:26:15;97781.81;;;6.10;100.00
19748;BME280;10032;51.386;12.516;2023-12-22T00:28:40;97786.13;;;6.06;100.00
19748;BME280;10032;51.386;12.516;2023-12-22T00:31:06;97792.28;;;6.07;100.00
19748;BME280;10032;51.386;12.516;2023-12-22T00:33:32;97797.63;;;6.12;100.00
19748;BME280;10032;51.386;12.516;2023-12-22T00:35:58;97798.97;;;6.14;100.00
19748;BME280;10032;51.386;12.516;2023-12-22T00:38:23;97788.75;;;6.16;100.00
19748;BME280;10032;51.386;12.516;2023-12-22T00:40:48;97798.16;;;6.19;100.00
19748;BME280;10032;51.386;12.516;2023-12-22T00:43:14;97802.72;;;6.18;100.00
19748;BME280;10032;51.386;12.516;2023-12-22T00:45:39;97794.13;;;6.16;100.00
19748;BME280;10032;51.386;12.516;2023-12-22T00:48:05;97813.50;;;6.13;100.00
19748;BME280;10032;51.386;12.516;2023-12-22T00:50:30;97801.41;;;6.11;100.00
19748;BME280;10032;51.386;12.516;2023-12-22T00:52:55;97801.13;;;6.12;100.00
19748;BME280;10032;51.386;12.516;2023-12-22T00:55:21;97818.09;;;6.13;100.00
19748;BME280;10032;51.386;12.516;2023-12-22T00:57:46;97810.28;;;6.11;100.00
19748;BME280;10032;51.386;12.516;2023-12-22T01:00:12;97806.50;;;6.12;100.00
19748;BME280;10032;51.386;12.516;2023-12-22T01:02:38;97817.78;;;6.14;100.00
19748;BME280;10032;51.386;12.516;2023-12-22T01:05:04;97810.53;;;6.15;100.00
19748;BME280;10032;51.386;12.516;2023-12-22T01:07:29;97815.38;;;6.18;100.00
19748;BME280;10032;51.386;12.516;2023-12-22T01:09:55;97816.72;;;6.15;100.00
19748;BME280;10032;51.386;12.516;2023-12-22T01:12:21;97825.84;;;6.14;100.00
19748;BME280;10032;51.386;12.516;2023-12-22T01:14:46;97832.84;;;6.15;100.00
19748;BME280;10032;51.386;12.516;2023-12-22T01:17:14;97851.13;;;6.13;100.00
19748;BME280;10032;51.386;12.516;2023-12-22T01:19:39;97853.84;;;6.08;100.00
19748;BME280;10032;51.386;12.516;2023-12-22T01:22:05;97844.47;;;6.01;100.00
19748;BME280;10032;51.386;12.516;2023-12-22T01:24:30;97856.06;;;5.96;100.00
19748;BME280;10032;51.386;12.516;2023-12-22T01:26:55;97848.53;;;5.93;100.00
19748;BME280;10032;51.386;12.516;2023-12-22T01:29:21;97857.69;;;5.92;100.00
19748;BME280;10032;51.386;12.516;2023-12-22T01:31:46;97861.19;;;5.93;100.00
19748;BME280;10032;51.386;12.516;2023-12-22T01:34:11;97851.53;;;5.92;100.00
19748;BME280;10032;51.386;12.516;2023-12-22T01:36:37;97865.75;;;5.92;100.00
19748;BME280;10032;51.386;12.516;2023-12-22T01:39:02;97871.38;;;5.91;100.00
19748;BME280;10032;51.386;12.516;2023-12-22T01:41:28;97880.25;;;5.91;100.00
19748;BME280;10032;51.386;12.516;2023-12-22T01:43:53;97887.81;;;5.89;100.00
19748;BME280;10032;51.386;12.516;2023-12-22T01:46:18;97888.31;;;5.91;100.00
19748;BME280;10032;51.386;12.516;2023-12-22T01:48:44;97886.97;;;5.94;100.00
19748;BME280;10032;51.386;12.516;2023-12-22T01:51:09;97894.22;;;5.93;100.00
19748;BME280;10032;51.386;12.516;2023-12-22T01:53:35;97868.97;;;5.94;100.00
19748;BME280;10032;51.386;12.516;2023-12-22T01:56:01;97876.72;;;5.96;100.00
19748;BME280;10032;51.386;12.516;2023-12-22T01:58:29;97879.94;;;6.03;100.00
19748;BME280;10032;51.386;12.516;2023-12-22T02:00:56;97872.66;;;6.03;100.00
19748;BME280;10032;51.386;12.516;2023-12-22T02:03:22;97870.53;;;6.05;100.00
19748;BME280;10032;51.386;12.516;2023-12-22T02:05:48;97870.78;;;6.09;100.00
19748;BME280;10032;51.386;12.516;2023-12-22T02:08:17;97868.09;;;6.09;100.00
19748;BME280;10032;51.386;12.516;2023-12-22T02:10:43;97859.47;;;6.12;100.00
19748;BME280;10032;51.386;12.516;2023-12-22T02:13:08;97863.47;;;6.14;100.00
19748;BME280;10032;51.386;12.516;2023-12-22T02:15:34;97855.41;;;6.14;100.00
19748;BME280;10032;51.386;12.516;2023-12-22T02:18:12;97858.09;;;6.14;100.00
19748;BME280;10032;51.386;12.516;2023-12-22T02:20:40;97855.97;;;6.16;100.00
19748;BME280;10032;51.386;12.516;2023-12-22T02:23:06;97853.00;;;6.18;100.00
19748;BME280;10032;51.386;12.516;2023-12-22T02:25:31;97849.75;;;6.16;100.00
19748;BME280;10032;51.386;12.516;2023-12-22T02:28:02;97846.00;;;6.17;100.00
19748;BME280;10032;51.386;12.516;2023-12-22T02:30:45;97840.06;;;6.20;100.00
19748;BME280;10032;51.386;12.516;2023-12-22T02:33:16;97853.28;;;6.11;100.00
19748;BME280;10032;51.386;12.516;2023-12-22T02:35:42;97850.06;;;6.09;100.00
19748;BME280;10032;51.386;12.516;2023-12-22T02:38:08;97853.84;;;6.08;100.00
19748;BME280;10032;51.386;12.516;2023-12-22T02:40:35;97845.78;;;6.03;100.00
19748;BME280;10032;51.386;12.516;2023-12-22T02:43:02;97844.22;;;5.97;100.00
19748;BME280;10032;51.386;12.516;2023-12-22T02:45:28;97848.84;;;5.92;100.00
19748;BME280;10032;51.386;12.516;2023-12-22T02:47:55;97860.13;;;5.89;100.00
19748;BME280;10032;51.386;12.516;2023-12-22T02:50:21;97845.63;;;5.85;100.00
19748;BME280;10032;51.386;12.516;2023-12-22T02:52:46;97852.09;;;5.84;100.00
19748;BME280;10032;51.386;12.516;2023-12-22T02:55:11;97857.72;;;5.82;100.00
19748;BME280;10032;51.386;12.516;2023-12-22T02:57:37;97859.63;;;5.82;100.00
19748;BME280;10032;51.386;12.516;2023-12-22T03:00:03;97859.34;;;5.83;100.00
19748;BME280;10032;51.386;12.516;2023-12-22T03:02:28;97844.28;;;5.82;100.00
19748;BME280;10032;51.386;12.516;2023-12-22T03:04:54;97842.16;;;5.84;100.00
19748;BME280;10032;51.386;12.516;2023-12-22T03:07:19;97840.25;;;5.85;100.00
19748;BME280;10032;51.386;12.516;2023-12-22T03:09:44;97839.97;;;5.86;100.00
19748;BME280;10032;51.386;12.516;2023-12-22T03:12:10;97837.03;;;5.88;100.00
19748;BME280;10032;51.386;12.516;2023-12-22T03:14:36;97847.78;;;5.88;100.00
19748;BME280;10032;51.386;12.516;2023-12-22T03:17:03;97848.56;;;5.88;100.00
19748;BME280;10032;51.386;12.516;2023-12-22T03:19:29;97849.38;;;5.89;100.00
19748;BME280;10032;51.386;12.516;2023-12-22T03:21:54;97854.50;;;5.85;100.00
19748;BME280;10032;51.386;12.516;2023-12-22T03:24:21;97840.78;;;5.87;100.00
19748;BME280;10032;51.386;12.516;2023-12-22T03:26:48;97839.44;;;5.89;100.00
19748;BME280;10032;51.386;12.516;2023-12-22T03:29:14;97827.63;;;5.85;100.00
19748;BME280;10032;51.386;12.516;2023-12-22T03:31:39;97844.28;;;5.82;100.00
19748;BME280;10032;51.386;12.516;2023-12-22T03:34:05;97833.53;;;5.82;100.00
19748;BME280;10032;51.386;12.516;2023-12-22T03:36:30;97843.50;;;5.77;100.00
19748;BME280;10032;51.386;12.516;2023-12-22T03:38:56;97848.63;;;5.73;100.00
19748;BME280;10032;51.386;12.516;2023-12-22T03:41:21;97861.50;;;5.71;100.00
19748;BME280;10032;51.386;12.516;2023-12-22T03:43:47;97855.59;;;5.69;100.00
19748;BME280;10032;51.386;12.516;2023-12-22T03:46:12;97851.59;;;5.67;100.00
19748;BME280;10032;51.386;12.516;2023-12-22T03:48:37;97850.00;;;5.66;100.00
19748;BME280;10032;51.386;12.516;2023-12-22T03:51:03;97849.72;;;5.62;100.00
19748;BME280;10032;51.386;12.516;2023-12-22T03:53:28;97848.09;;;5.61;100.00
19748;BME280;10032;51.386;12.516;2023-12-22T03:55:54;97852.69;;;5.61;100.00
19748;BME280;10032;51.386;12.516;2023-12-22T03:58:20;97856.19;;;5.56;100.00
19748;BME280;10032;51.386;12.516;2023-12-22T04:00:45;97857.81;;;5.57;100.00
19748;BME280;10032;51.386;12.516;2023-12-22T04:03:11;97846.25;;;5.57;100.00
19748;BME280;10032;51.386;12.516;2023-12-22T04:05:36;97843.56;;;5.57;100.00
19748;BME280;10032;51.386;12.516;2023-12-22T04:08:02;97845.44;;;5.56;100.00
19748;BME280;10032;51.386;12.516;2023-12-22T04:10:27;97854.03;;;5.58;100.00
19748;BME280;10032;51.386;12.516;2023-12-22T04:12:53;97863.44;;;5.61;100.00
19748;BME280;10032;51.386;12.516;2023-12-22T04:15:18;97858.06;;;5.61;100.00
19748;BME280;10032;51.386;12.516;2023-12-22T04:17:43;97850.53;;;5.63;100.00
19748;BME280;10032;51.386;12.516;2023-12-22T04:20:09;97856.72;;;5.63;100.00
19748;BME280;10032;51.386;12.516;2023-12-22T04:22:34;97836.00;;;5.64;100.00
19748;BME280;10032;51.386;12.516;2023-12-22T04:25:00;97829.84;;;5.63;100.00
19748;BME280;10032;51.386;12.516;2023-12-22T04:27:25;97830.97;;;5.57;100.00
19748;BME280;10032;51.386;12.516;2023-12-22T04:29:52;97832.59;;;5.48;100.00
19748;BME280;10032;51.386;12.516;2023-12-22T04:32:17;97819.16;;;5.48;100.00
19748;BME280;10032;51.386;12.516;2023-12-22T04:34:42;97819.72;;;5.40;100.00
19748;BME280;10032;51.386;12.516;2023-12-22T04:37:09;97812.50;;;5.36;100.00
19748;BME280;10032;51.386;12.516;2023-12-22T04:39:34;97811.69;;;5.35;100.00
19748;BME280;10032;51.386;12.516;2023-12-22T04:42:00;97823.75;;;5.33;100.00
19748;BME280;10032;51.386;12.516;2023-12-22T04:44:25;97832.63;;;5.33;100.00
19748;BME280;10032;51.386;12.516;2023-12-22T04:46:50;97826.75;;;5.31;100.00
19748;BME280;10032;51.386;12.516;2023-12-22T04:49:16;97832.66;;;5.28;100.00
19748;BME280;10032;51.386;12.516;2023-12-22T04:51:42;97828.88;;;5.29;100.00
19748;BME280;10032;51.386;12.516;2023-12-22T04:54:07;97825.69;;;5.27;100.00
19748;BME280;10032;51.386;12.516;2023-12-22T04:56:33;97825.16;;;5.25;100.00
19748;BME280;10032;51.386;12.516;2023-12-22T04:58:58;97809.06;;;5.25;100.00
19748;BME280;10032;51.386;12.516;2023-12-22T05:01:23;97824.59;;;5.23;100.00
19748;BME280;10032;51.386;12.516;2023-12-22T05:03:49;97808.50;;;5.23;100.00
19748;BME280;10032;51.386;12.516;2023-12-22T05:06:14;97815.47;;;5.19;100.00
19748;BME280;10032;51.386;12.516;2023-12-22T05:08:40;97820.06;;;5.14;100.00
19748;BME280;10032;51.386;12.516;2023-12-22T05:11:05;97823.53;;;5.19;100.00
19748;BME280;10032;51.386;12.516;2023-12-22T05:13:31;97825.44;;;5.19;100.00
19748;BME280;10032;51.386;12.516;2023-12-22T05:15:56;97827.84;;;5.20;100.00
19748;BME280;10032;51.386;12.516;2023-12-22T05:18:21;97830.53;;;5.20;100.00
19748;BME280;10032;51.386;12.516;2023-12-22T05:20:47;97830.53;;;5.20;100.00
19748;BME280;10032;51.386;12.516;2023-12-22T05:23:12;97834.25;;;5.19;100.00
19748;BME280;10032;51.386;12.516;2023-12-22T05:25:37;97820.31;;;5.17;100.00
19748;BME280;10032;51.386;12.516;2023-12-22T05:28:03;97830.25;;;5.17;100.00
19748;BME280;10032;51.386;12.516;2023-12-22T05:30:28;97832.41;;;5.15;100.00
19748;BME280;10032;51.386;12.516;2023-12-22T05:32:54;97836.97;;;5.14;100.00
19748;BME280;10032;51.386;12.516;2023-12-22T05:35:20;97823.84;;;5.13;100.00
19748;BME280;10032;51.386;12.516;2023-12-22T05:37:46;97824.63;;;5.13;100.00
19748;BME280;10032;51.386;12.516;2023-12-22T05:40:11;97834.03;;;5.11;100.00
19748;BME280;10032;51.386;12.516;2023-12-22T05:42:37;97836.72;;;5.06;100.00
19748;BME280;10032;51.386;12.516;2023-12-22T05:45:03;97831.63;;;5.04;100.00
19748;BME280;10032;51.386;12.516;2023-12-22T05:47:28;97841.28;;;5.00;100.00
19748;BME280;10032;51.386;12.516;2023-12-22T05:49:54;97843.97;;;5.00;100.00
19748;BME280;10032;51.386;12.516;2023-12-22T05:52:19;97841.31;;;4.95;100.00
19748;BME280;10032;51.386;12.516;2023-12-22T05:54:45;97833.25;;;4.95;100.00
19748;BME280;10032;51.386;12.516;2023-12-22T05:57:10;97828.41;;;4.97;100.00
19748;BME280;10032;51.386;12.516;2023-12-22T05:59:35;97838.88;;;4.99;100.00
19748;BME280;10032;51.386;12.516;2023-12-22T06:02:01;97827.88;;;5.00;100.00
19748;BME280;10032;51.386;12.516;2023-12-22T06:04:28;97842.38;;;5.04;100.00
19748;BME280;10032;51.386;12.516;2023-12-22T06:06:53;97836.44;;;5.07;100.00
19748;BME280;10032;51.386;12.516;2023-12-22T06:09:18;97830.56;;;5.10;100.00
19748;BME280;10032;51.386;12.516;2023-12-22T06:11:46;97835.63;;;5.17;100.00
19748;BME280;10032;51.386;12.516;2023-12-22T06:14:11;97831.06;;;5.17;100.00
19748;BME280;10032;51.386;12.516;2023-12-22T06:16:37;97834.81;;;5.21;100.00
19748;BME280;10032;51.386;12.516;2023-12-22T06:19:02;97834.25;;;5.24;100.00
19748;BME280;10032;51.386;12.516;2023-12-22T06:21:28;97843.94;;;5.25;100.00
19748;BME280;10032;51.386;12.516;2023-12-22T06:23:53;97847.41;;;5.31;100.00
19748;BME280;10032;51.386;12.516;2023-12-22T06:26:19;97853.59;;;5.31;100.00
19748;BME280;10032;51.386;12.516;2023-12-22T06:28:44;97834.22;;;5.34;100.00
19748;BME280;10032;51.386;12.516;2023-12-22T06:31:20;97848.47;;;5.35;100.00
19748;BME280;10032;51.386;12.516;2023-12-22T06:33:48;97852.50;;;5.32;100.00
19748;BME280;10032;51.386;12.516;2023-12-22T06:36:24;97881.78;;;5.29;100.00
19748;BME280;10032;51.386;12.516;2023-12-22T06:38:51;97883.91;;;5.27;100.00
19748;BME280;10032;51.386;12.516;2023-12-22T06:41:27;97893.84;;;5.26;100.00
19748;BME280;10032;51.386;12.516;2023-12-22T06:43:53;97890.63;;;5.19;100.00
19748;BME280;10032;51.386;12.516;2023-12-22T06:46:22;97899.22;;;5.16;100.00
19748;BME280;10032;51.386;12.516;2023-12-22T06:48:48;97896.28;;;5.18;100.00
19748;BME280;10032;51.386;12.516;2023-12-22T06:51:21;97897.06;;;5.13;100.00
19748;BME280;10032;51.386;12.516;2023-12-22T06:53:47;97919.09;;;5.10;100.00
19748;BME280;10032;51.386;12.516;2023-12-22T06:56:21;97918.28;;;5.05;100.00
19748;BME280;10032;51.386;12.516;2023-12-22T06:58:48;97920.69;;;5.01;100.00
19748;BME280;10032;51.386;12.516;2023-12-22T07:01:35;97912.13;;;4.94;100.00
19748;BME280;10032;51.386;12.516;2023-12-22T07:04:02;97908.88;;;4.92;100.00
19748;BME280;10032;51.386;12.516;2023-12-22T07:06:32;97929.31;;;4.88;100.00
19748;BME280;10032;51.386;12.516;2023-12-22T07:11:49;97950.75;;;4.83;100.00
19748;BME280;10032;51.386;12.516;2023-12-22T07:14:15;97968.44;;;4.79;100.00
19748;BME280;10032;51.386;12.516;2023-12-22T07:16:41;97967.34;;;4.75;100.00
19748;BME280;10032;51.386;12.516;2023-12-22T07:19:07;97959.84;;;4.67;100.00
19748;BME280;10032;51.386;12.516;2023-12-22T07:21:33;97970.00;;;4.65;100.00
19748;BME280;10032;51.386;12.516;2023-12-22T07:23:58;97972.16;;;4.63;100.00
19748;BME280;10032;51.386;12.516;2023-12-22T07:26:24;97986.09;;;4.65;100.00
19748;BME280;10032;51.386;12.516;2023-12-22T07:28:51;97964.66;;;4.65;100.00
19748;BME280;10032;51.386;12.516;2023-12-22T07:31:17;97961.44;;;4.68;100.00
19748;BME280;10032;51.386;12.516;2023-12-22T07:33:43;97949.66;;;4.74;100.00
19748;BME280;10032;51.386;12.516;2023-12-22T07:36:09;97958.78;;;4.73;100.00
19748;BME280;10032;51.386;12.516;2023-12-22T07:38:35;97944.28;;;4.74;100.00
19748;BME280;10032;51.386;12.516;2023-12-22T07:41:01;97953.13;;;4.80;100.00
19748;BME280;10032;51.386;12.516;2023-12-22T07:43:26;97947.25;;;4.83;100.00
19748;BME280;10032;51.386;12.516;2023-12-22T07:45:51;97980.50;;;4.77;100.00
19748;BME280;10032;51.386;12.516;2023-12-22T07:48:17;97992.03;;;4.67;100.00
19748;BME280;10032;51.386;12.516;2023-12-22T07:50:43;97983.94;;;4.52;100.00
19748;BME280;10032;51.386;12.516;2023-12-22T07:53:10;97974.28;;;4.46;100.00
19748;BME280;10032;51.386;12.516;2023-12-22T07:55:35;97974.78;;;4.43;100.00
19748;BME280;10032;51.386;12.516;2023-12-22T07:58:01;97979.91;;;4.50;100.00
19748;BME280;10032;51.386;12.516;2023-12-22T08:00:26;97980.72;;;4.55;100.00
19748;BME280;10032;51.386;12.516;2023-12-22T08:02:51;97982.34;;;4.61;100.00
19748;BME280;10032;51.386;12.516;2023-12-22T08:05:18;97982.09;;;4.68;100.00
19748;BME280;10032;51.386;12.516;2023-12-22T08:07:43;97976.47;;;4.74;100.00
19748;BME280;10032;51.386;12.516;2023-12-22T08:10:09;97979.97;;;4.80;100.00
19748;BME280;10032;51.386;12.516;2023-12-22T08:12:34;97997.41;;;4.87;100.00
19748;BME280;10032;51.386;12.516;2023-12-22T08:15:00;97996.06;;;4.90;100.00
19748;BME280;10032;51.386;12.516;2023-12-22T08:17:26;98004.69;;;4.92;100.00
19748;BME280;10032;51.386;12.516;2023-12-22T08:19:51;98023.75;;;5.00;100.00
19748;BME280;10032;51.386;12.516;2023-12-22T08:22:17;98028.28;;;5.00;100.00
19748;BME280;10032;51.386;12.516;2023-12-22T08:24:42;98025.34;;;5.01;100.00
19748;BME280;10032;51.386;12.516;2023-12-22T08:27:08;98052.16;;;5.01;100.00
19748;BME280;10032;51.386;12.516;2023-12-22T08:29:33;98066.66;;;5.00;100.00
19748;BME280;10032;51.386;12.516;2023-12-22T08:31:59;98050.28;;;4.97;100.00
19748;BME280;10032;51.386;12.516;2023-12-22T08:34:26;98058.59;;;4.95;100.00
19748;BME280;10032;51.386;12.516;2023-12-22T08:36:51;98082.50;;;4.97;100.00
19748;BME280;10032;51.386;12.516;2023-12-22T08:39:16;98067.19;;;4.97;100.00
19748;BME280;10032;51.386;12.516;2023-12-22T08:41:42;98074.69;;;4.95;100.00
19748;BME280;10032;51.386;12.516;2023-12-22T08:44:07;98081.66;;;4.96;100.00
19748;BME280;10032;51.386;12.516;2023-12-22T08:46:33;98100.44;;;4.96;100.00
19748;BME280;10032;51.386;12.516;2023-12-22T08:48:59;98067.44;;;5.01;100.00
19748;BME280;10032;51.386;12.516;2023-12-22T08:51:25;98077.94;;;5.02;100.00
19748;BME280;10032;51.386;12.516;2023-12-22T08:53:51;98079.53;;;5.08;100.00
19748;BME280;10032;51.386;12.516;2023-12-22T08:56:17;98063.47;;;5.18;100.00
19748;BME280;10032;51.386;12.516;2023-12-22T08:58:43;98069.41;;;5.25;100.00
19748;BME280;10032;51.386;12.516;2023-12-22T09:01:14;98073.97;;;5.30;100.00
19748;BME280;10032;51.386;12.516;2023-12-22T09:03:40;98088.19;;;5.30;100.00
19748;BME280;10032;51.386;12.516;2023-12-22T09:06:10;98091.41;;;5.27;100.00
19748;BME280;10032;51.386;12.516;2023-12-22T09:08:35;98087.91;;;5.32;100.00
19748;BME280;10032;51.386;12.516;2023-12-22T09:11:01;98099.22;;;5.34;100.00
19748;BME280;10032;51.386;12.516;2023-12-22T09:13:26;98099.75;;;5.36;100.00
19748;BME280;10032;51.386;12.516;2023-12-22T09:15:51;98098.91;;;5.35;100.00
19748;BME280;10032;51.386;12.516;2023-12-22T09:18:17;98098.13;;;5.35;100.00
19748;BME280;10032;51.386;12.516;2023-12-22T09:20:42;98104.84;;;5.37;100.00
19748;BME280;10032;51.386;12.516;2023-12-22T09:23:08;98105.09;;;5.36;100.00
19748;BME280;10032;51.386;12.516;2023-12-22T09:25:35;98118.50;;;5.26;100.00
19748;BME280;10032;51.386;12.516;2023-12-22T09:28:00;98116.63;;;5.21;100.00
19748;BME280;10032;51.386;12.516;2023-12-22T09:30:26;98109.06;;;5.13;100.00
19748;BME280;10032;51.386;12.516;2023-12-22T09:32:51;98111.22;;;5.11;100.00
19748;BME280;10032;51.386;12.516;2023-12-22T09:35:17;98111.75;;;5.13;100.00
19748;BME280;10032;51.386;12.516;2023-12-22T09:37:43;98142.09;;;5.14;100.00
19748;BME280;10032;51.386;12.516;2023-12-22T09:40:09;98164.13;;;5.21;100.00
19748;BME280;10032;51.386;12.516;2023-12-22T09:42:40;98173.75;;;5.17;100.00
19748;BME280;10032;51.386;12.516;2023-12-22T09:45:08;98182.59;;;5.07;100.00
19748;BME280;10032;51.386;12.516;2023-12-22T09:47:36;98172.84;;;4.86;100.00
19748;BME280;10032;51.386;12.516;2023-12-22T09:50:04;98162.72;;;4.47;100.00
19748;BME280;10032;51.386;12.516;2023-12-22T09:52:31;98175.66;;;4.18;100.00
19748;BME280;10032;51.386;12.516;2023-12-22T09:54:58;98176.47;;;4.19;100.00
19748;BME280;10032;51.386;12.516;2023-12-22T09:57:24;98160.94;;;4.21;100.00
19748;BME280;10032;51.386;12.516;2023-12-22T09:59:51;98185.63;;;4.23;100.00
19748;BME280;10032;51.386;12.516;2023-12-22T10:02:17;98187.50;;;4.27;100.00
19748;BME280;10032;51.386;12.516;2023-12-22T10:04:43;98159.16;;;4.31;100.00
19748;BME280;10032;51.386;12.516;2023-12-22T10:07:11;98160.53;;;4.39;100.00
19748;BME280;10032;51.386;12.516;2023-12-22T10:09:40;98173.66;;;4.40;100.00
19748;BME280;10032;51.386;12.516;2023-12-22T10:12:09;98162.44;;;4.43;100.00
19748;BME280;10032;51.386;12.516;2023-12-22T10:14:37;98165.16;;;4.53;100.00
19748;BME280;10032;51.386;12.516;2023-12-22T10:17:06;98161.44;;;4.59;100.00
19748;BME280;10032;51.386;12.516;2023-12-22T10:19:31;98156.66;;;4.66;100.00
19748;BME280;10032;51.386;12.516;2023-12-22T10:21:56;98152.38;;;4.70;100.00
19748;BME280;10032;51.386;12.516;2023-12-22T10:24:38;98154.00;;;4.71;100.00
19748;BME280;10032;51.386;12.516;2023-12-22T10:27:05;98151.84;;;4.68;100.00
19748;BME280;10032;51.386;12.516;2023-12-22T10:29:31;98152.94;;;4.72;100.00
19748;BME280;10032;51.386;12.516;2023-12-22T10:31:57;98141.69;;;4.80;100.00
19748;BME280;10032;51.386;12.516;2023-12-22T10:34:23;98149.25;;;4.83;100.00
19748;BME280;10032;51.386;12.516;2023-12-22T10:36:48;98144.41;;;4.85;100.00
19748;BME280;10032;51.386;12.516;2023-12-22T10:39:14;98128.09;;;4.97;100.00
19748;BME280;10032;51.386;12.516;2023-12-22T10:41:40;98136.19;;;5.07;100.00
19748;BME280;10032;51.386;12.516;2023-12-22T10:44:05;98129.47;;;5.14;100.00
19748;BME280;10032;51.386;12.516;2023-12-22T10:46:33;98127.38;;;5.21;100.00
19748;BME280;10032;51.386;12.516;2023-12-22T10:48:59;98115.34;;;5.44;100.00
19748;BME280;10032;51.386;12.516;2023-12-22T10:51:24;98110.50;;;5.66;100.00
19748;BME280;10032;51.386;12.516;2023-12-22T10:53:54;98106.50;;;5.68;100.00
19748;BME280;10032;51.386;12.516;2023-12-22T10:56:20;98103.81;;;5.73;100.00
19748;BME280;10032;51.386;12.516;2023-12-22T10:58:46;98103.84;;;5.83;100.00
19748;BME280;10032;51.386;12.516;2023-12-22T11:01:14;98095.47;;;5.90;100.00
19748;BME280;10032;51.386;12.516;2023-12-22T11:03:44;98096.56;;;5.99;100.00
19748;BME280;10032;51.386;12.516;2023-12-22T11:06:10;98088.75;;;6.02;100.00
19748;BME280;10032;51.386;12.516;2023-12-22T11:08:38;98081.22;;;6.09;100.00
19748;BME280;10032;51.386;12.516;2023-12-22T11:11:26;98083.38;;;6.12;100.00
19748;BME280;10032;51.386;12.516;2023-12-22T11:13:56;98084.97;;;6.18;100.00
19748;BME280;10032;51.386;12.516;2023-12-22T11:16:24;98084.44;;;6.21;100.00
19748;BME280;10032;51.386;12.516;2023-12-22T11:18:49;98075.81;;;6.24;100.00
19748;BME280;10032;51.386;12.516;2023-12-22T11:21:19;98082.50;;;6.32;100.00
19748;BME280;10032;51.386;12.516;2023-12-22T11:23:47;98080.06;;;6.45;100.00
19748;BME280;10032;51.386;12.516;2023-12-22T11:26:16;98066.56;;;6.55;100.00
19748;BME280;10032;51.386;12.516;2023-12-22T11:28:42;98067.59;;;6.69;100.00
19748;BME280;10032;51.386;12.516;2023-12-22T11:31:10;98076.16;;;6.76;100.00
19748;BME280;10032;51.386;12.516;2023-12-22T11:33:36;98083.16;;;6.77;100.00
19748;BME280;10032;51.386;12.516;2023-12-22T11:36:03;98091.22;;;6.82;100.00
19748;BME280;10032;51.386;12.516;2023-12-22T11:38:30;98121.38;;;6.84;100.00
19748;BME280;10032;51.386;12.516;2023-12-22T11:40:58;98138.63;;;6.78;100.00
19748;BME280;10032;51.386;12.516;2023-12-22T11:43:25;98122.81;;;6.47;100.00
19748;BME280;10032;51.386;12.516;2023-12-22T11:45:50;98091.44;;;6.12;100.00
19748;BME280;10032;51.386;12.516;2023-12-22T11:48:16;98083.38;;;5.97;100.00
19748;BME280;10032;51.386;12.516;2023-12-22T11:50:42;98082.88;;;5.80;100.00
19748;BME280;10032;51.386;12.516;2023-12-22T11:53:24;98086.88;;;5.68;100.00
19748;BME280;10032;51.386;12.516;2023-12-22T11:55:56;98055.97;;;5.60;100.00
19748;BME280;10032;51.386;12.516;2023-12-22T11:58:44;98084.16;;;5.53;100.00
19748;BME280;10032;51.386;12.516;2023-12-22T12:01:25;98089.28;;;5.44;100.00
19748;BME280;10032;51.386;12.516;2023-12-22T12:03:52;98115.03;;;5.40;100.00
19748;BME280;10032;51.386;12.516;2023-12-22T12:08:54;98108.59;;;5.26;100.00
19748;BME280;10032;51.386;12.516;2023-12-22T12:11:20;98095.16;;;5.21;100.00
19748;BME280;10032;51.386;12.516;2023-12-22T12:13:46;98111.78;;;5.18;100.00
19748;BME280;10032;51.386;12.516;2023-12-22T12:16:19;98110.13;;;5.02;100.00
19748;BME280;10032;51.386;12.516;2023-12-22T12:18:49;98127.44;;;4.75;100.00
19748;BME280;10032;51.386;12.516;2023-12-22T12:21:15;98120.16;;;4.60;100.00
19748;BME280;10032;51.386;12.516;2023-12-22T12:23:42;98117.28;;;4.20;100.00
19748;BME280;10032;51.386;12.516;2023-12-22T12:26:08;98117.75;;;3.76;100.00
19748;BME280;10032;51.386;12.516;2023-12-22T12:28:35;98118.69;;;3.60;100.00
19748;BME280;10032;51.386;12.516;2023-12-22T12:31:10;98104.34;;;3.44;100.00
19748;BME280;10032;51.386;12.516;2023-12-22T12:33:36;98116.78;;;3.29;100.00
19748;BME280;10032;51.386;12.516;2023-12-22T12:36:02;98090.53;;;3.26;100.00
19748;BME280;10032;51.386;12.516;2023-12-22T12:38:48;98091.31;;;3.21;100.00
19748;BME280;10032;51.386;12.516;2023-12-22T12:41:26;98099.81;;;3.18;100.00
19748;BME280;10032;51.386;12.516;2023-12-22T12:43:54;98088.81;;;3.15;100.00
19748;BME280;10032;51.386;12.516;2023-12-22T12:46:20;98096.00;;;3.09;100.00
19748;BME280;10032;51.386;12.516;2023-12-22T12:48:45;98106.66;;;3.04;100.00
19748;BME280;10032;51.386;12.516;2023-12-22T12:51:11;98114.16;;;3.07;100.00
19748;BME280;10032;51.386;12.516;2023-12-22T12:53:37;98128.00;;;2.99;100.00